Time;durP1;ratioP1;P1;durP2;ratioP2;P2;SDS_P1;SDS_P2;PMS_P1;PMS_P2;Temp;Humidity;BMP_temperature;BMP_pressure;BME280_temperature;BME280_humidity;BME280_pressure;Samples;Min_cycle;Max_cycle;Signal;HPM_P1;HPM_P2
2022/03/25 00:00:31;;;;;;;53.60;25.33;;;;;;;;;;5028090;28;20025;-75
2022/03/25 00:02:57;;;;;;;57.27;25.43;;;;;;;;;;5028125;28;20021;-75
2022/03/25 00:05:22;;;;;;;64.50;27.77;;;;;;;;;;5028073;28;20021;-75
2022/03/25 00:07:49;;;;;;;58.40;25.33;;;;;;;;;;5029668;28;20438;-76
2022/03/25 00:10:15;;;;;;;56.13;27.17;;;;;;;;;;5028809;28;20357;-75
2022/03/25 00:12:40;;;;;;;55.87;25.27;;;;;;;;;;5027904;28;20026;-77
2022/03/25 00:15:06;;;;;;;57.23;24.47;;;;;;;;;;5029520;28;20072;-76
2022/03/25 00:17:32;;;;;;;62.33;26.43;;;;;;;;;;5027705;28;20029;-75
2022/03/25 00:19:57;;;;;;;57.30;25.07;;;;;;;;;;5028017;28;20072;-75
2022/03/25 00:22:23;;;;;;;55.87;26.17;;;;;;;;;;5028276;28;20473;-75
2022/03/25 00:24:50;;;;;;;60.53;27.37;;;;;;;;;;5027761;28;20032;-75
2022/03/25 00:27:15;;;;;;;58.27;25.90;;;;;;;;;;5027976;28;20033;-75
2022/03/25 00:29:41;;;;;;;59.43;26.90;;;;;;;;;;5027854;28;20018;-75
2022/03/25 00:32:08;;;;;;;53.87;26.40;;;;;;;;;;5027710;28;20029;-74
2022/03/25 00:34:33;;;;;;;60.73;28.13;;;;;;;;;;5029375;28;20116;-74
2022/03/25 00:37:00;;;;;;;55.50;26.27;;;;;;;;;;5031913;28;20120;-75
2022/03/25 00:39:26;;;;;;;62.27;24.70;;;;;;;;;;5033562;28;20025;-74
2022/03/25 00:41:51;;;;;;;59.80;25.70;;;;;;;;;;5031544;28;20045;-75
2022/03/25 00:44:18;;;;;;;61.03;27.23;;;;;;;;;;5032051;28;20076;-75
2022/03/25 00:46:44;;;;;;;56.47;26.13;;;;;;;;;;5031756;28;20029;-75
2022/03/25 00:49:11;;;;;;;59.50;26.80;;;;;;;;;;5031679;28;20029;-75
2022/03/25 00:51:37;;;;;;;60.33;26.47;;;;;;;;;;5031570;28;20430;-74
2022/03/25 00:54:03;;;;;;;66.63;25.77;;;;;;;;;;5032933;28;20040;-75
2022/03/25 00:56:29;;;;;;;58.20;26.43;;;;;;;;;;5031160;28;20030;-76
2022/03/25 00:58:54;;;;;;;53.60;25.00;;;;;;;;;;5031634;28;20428;-74
2022/03/25 01:01:20;;;;;;;56.13;26.13;;;;;;;;;;5031239;28;20022;-74
2022/03/25 01:03:45;;;;;;;59.13;26.97;;;;;;;;;;5031437;28;20516;-74
2022/03/25 01:06:12;;;;;;;64.30;26.50;;;;;;;;;;5031763;28;20450;-75
2022/03/25 01:08:38;;;;;;;62.23;26.77;;;;;;;;;;5031099;28;20064;-75
2022/03/25 01:11:04;;;;;;;55.43;24.87;;;;;;;;;;5031104;28;20049;-75
2022/03/25 01:13:34;;;;;;;59.13;24.60;;;;;;;;;;5032419;28;20049;-75
2022/03/25 01:16:04;;;;;;;66.93;26.70;;;;;;;;;;5032518;28;20392;-75
2022/03/25 01:18:30;;;;;;;64.50;26.53;;;;;;;;;;5031137;28;20071;-75
2022/03/25 01:20:57;;;;;;;56.07;26.07;;;;;;;;;;5032460;28;20068;-75
2022/03/25 01:23:23;;;;;;;53.83;24.63;;;;;;;;;;5030918;28;20079;-75
2022/03/25 01:25:50;;;;;;;57.70;26.50;;;;;;;;;;5031069;28;20029;-76
2022/03/25 01:28:16;;;;;;;58.57;26.23;;;;;;;;;;5032290;28;20029;-74
2022/03/25 01:30:43;;;;;;;59.20;25.40;;;;;;;;;;5031058;28;20523;-74
2022/03/25 01:33:09;;;;;;;63.83;27.77;;;;;;;;;;5032263;28;20031;-74
2022/03/25 01:35:35;;;;;;;59.00;26.47;;;;;;;;;;5030568;28;20116;-74
2022/03/25 01:38:01;;;;;;;60.40;26.47;;;;;;;;;;5030929;28;20028;-75
2022/03/25 01:40:27;;;;;;;57.10;27.33;;;;;;;;;;5031050;28;20026;-75
2022/03/25 01:42:52;;;;;;;53.07;25.03;;;;;;;;;;5030501;28;20026;-75
2022/03/25 01:45:34;;;;;;;51.73;25.57;;;;;;;;;;5030255;28;20120;-75
2022/03/25 01:48:01;;;;;;;61.55;25.67;;;;;;;;;;5031176;28;20389;-76
2022/03/25 01:50:26;;;;;;;59.10;25.57;;;;;;;;;;5031081;28;20041;-73
2022/03/25 01:52:53;;;;;;;61.47;26.30;;;;;;;;;;5030688;28;20033;-74
2022/03/25 01:55:24;;;;;;;61.17;26.83;;;;;;;;;;5032167;28;20113;-75
2022/03/25 01:57:50;;;;;;;62.10;25.93;;;;;;;;;;5030315;28;20416;-75
2022/03/25 02:00:17;;;;;;;61.87;25.33;;;;;;;;;;5030830;28;20045;-75
2022/03/25 02:02:43;;;;;;;59.77;25.27;;;;;;;;;;5030120;28;20025;-75
2022/03/25 02:05:10;;;;;;;64.37;26.10;;;;;;;;;;5031761;28;20392;-75
2022/03/25 02:07:36;;;;;;;58.30;26.40;;;;;;;;;;5029763;28;20037;-74
2022/03/25 02:10:02;;;;;;;53.10;25.90;;;;;;;;;;5030183;28;20044;-74
2022/03/25 02:12:28;;;;;;;58.77;25.40;;;;;;;;;;5030106;28;20079;-74
2022/03/25 02:14:57;;;;;;;55.73;24.03;;;;;;;;;;5029844;28;20420;-74
2022/03/25 02:17:22;;;;;;;59.43;27.07;;;;;;;;;;5030397;28;20030;-74
2022/03/25 02:19:49;;;;;;;61.17;26.17;;;;;;;;;;5035762;28;20041;-74
2022/03/25 02:22:15;;;;;;;65.40;27.10;;;;;;;;;;5020540;28;20152;-73
2022/03/25 02:24:40;;;;;;;63.83;27.07;;;;;;;;;;5037028;28;20083;-75
2022/03/25 02:27:07;;;;;;;64.27;27.50;;;;;;;;;;5032381;28;20056;-75
2022/03/25 02:29:33;;;;;;;63.53;26.37;;;;;;;;;;5029814;28;20516;-74
2022/03/25 02:31:58;;;;;;;68.40;26.90;;;;;;;;;;5031522;28;20057;-74
2022/03/25 02:34:24;;;;;;;60.07;24.87;;;;;;;;;;5029980;28;20057;-75
2022/03/25 02:36:49;;;;;;;59.57;26.93;;;;;;;;;;5031262;28;20064;-74
2022/03/25 02:39:17;;;;;;;71.47;26.93;;;;;;;;;;5029778;28;20091;-74
2022/03/25 02:41:43;;;;;;;62.73;26.80;;;;;;;;;;5029624;28;20087;-74
2022/03/25 02:44:11;;;;;;;58.13;25.73;;;;;;;;;;5030926;28;20480;-76
2022/03/25 02:46:37;;;;;;;63.47;27.17;;;;;;;;;;5032737;28;20021;-75
2022/03/25 02:49:05;;;;;;;58.93;25.37;;;;;;;;;;5033178;28;20053;-74
2022/03/25 02:51:31;;;;;;;53.33;25.43;;;;;;;;;;5031937;28;20021;-76
2022/03/25 02:53:57;;;;;;;57.30;26.57;;;;;;;;;;5031985;28;20029;-74
2022/03/25 02:56:24;;;;;;;70.30;26.90;;;;;;;;;;5031997;28;20445;-75
2022/03/25 02:58:51;;;;;;;57.03;27.50;;;;;;;;;;5028974;28;20048;-73
2022/03/25 03:01:16;;;;;;;61.00;26.13;;;;;;;;;;5029351;28;20033;-74
2022/03/25 03:03:42;;;;;;;57.77;25.90;;;;;;;;;;5028909;28;20040;-75
2022/03/25 03:06:07;;;;;;;63.60;26.30;;;;;;;;;;5012630;28;20029;-75
2022/03/25 03:08:35;;;;;;;62.27;26.50;;;;;;;;;;5012338;28;20082;-74
2022/03/25 03:11:01;;;;;;;59.20;27.30;;;;;;;;;;5029335;28;20029;-75
2022/03/25 03:13:27;;;;;;;58.60;25.87;;;;;;;;;;5030310;28;20072;-74
2022/03/25 03:15:53;;;;;;;62.43;25.93;;;;;;;;;;5028966;28;20485;-74
2022/03/25 03:18:22;;;;;;;61.43;27.10;;;;;;;;;;5029206;28;20230;-76
2022/03/25 03:20:48;;;;;;;59.73;27.10;;;;;;;;;;5029043;28;20492;-75
2022/03/25 03:23:13;;;;;;;59.13;25.17;;;;;;;;;;5028854;28;20021;-73
2022/03/25 03:25:39;;;;;;;60.17;26.73;;;;;;;;;;5028718;28;20032;-74
2022/03/25 03:28:04;;;;;;;75.83;29.73;;;;;;;;;;5028675;28;20061;-74
2022/03/25 03:30:31;;;;;;;59.27;26.77;;;;;;;;;;5029832;28;20545;-75
2022/03/25 03:33:04;;;;;;;56.27;25.33;;;;;;;;;;5012267;28;20083;-74
2022/03/25 03:35:31;;;;;;;56.07;26.37;;;;;;;;;;5028976;28;20354;-74
2022/03/25 03:37:56;;;;;;;66.83;28.50;;;;;;;;;;5029053;28;20060;-75
2022/03/25 03:40:22;;;;;;;62.33;26.53;;;;;;;;;;5030564;28;20033;-74
2022/03/25 03:42:48;;;;;;;56.07;25.17;;;;;;;;;;5028557;28;20060;-74
2022/03/25 03:45:14;;;;;;;54.37;25.37;;;;;;;;;;5029996;28;20040;-74
2022/03/25 03:47:40;;;;;;;62.33;26.27;;;;;;;;;;5028407;28;20025;-74
2022/03/25 03:50:09;;;;;;;62.07;26.97;;;;;;;;;;5012374;28;20037;-74
2022/03/25 03:52:36;;;;;;;58.30;26.27;;;;;;;;;;5028073;28;20026;-75
2022/03/25 03:55:04;;;;;;;60.43;26.43;;;;;;;;;;5011805;28;20026;-75
2022/03/25 03:57:30;;;;;;;58.60;26.47;;;;;;;;;;5012057;28;20037;-75
2022/03/25 03:59:56;;;;;;;58.50;26.80;;;;;;;;;;5028164;28;20060;-75
2022/03/25 04:02:22;;;;;;;55.43;24.53;;;;;;;;;;5028276;28;20450;-74
2022/03/25 04:04:48;;;;;;;62.53;26.17;;;;;;;;;;5028110;28;20405;-74
2022/03/25 04:07:15;;;;;;;55.43;25.23;;;;;;;;;;5028371;28;20064;-74
2022/03/25 04:09:41;;;;;;;53.00;24.67;;;;;;;;;;5027634;28;20040;-74
2022/03/25 04:12:11;;;;;;;52.50;26.07;;;;;;;;;;5029269;28;20037;-74
2022/03/25 04:14:37;;;;;;;57.70;24.83;;;;;;;;;;4996006;28;20139;-75
2022/03/25 04:17:03;;;;;;;57.53;25.60;;;;;;;;;;5029546;28;20057;-74
2022/03/25 04:19:28;;;;;;;58.47;26.80;;;;;;;;;;5028095;28;20030;-76
2022/03/25 04:21:54;;;;;;;56.07;24.97;;;;;;;;;;5027582;28;20028;-75
2022/03/25 04:24:20;;;;;;;58.97;25.50;;;;;;;;;;5028141;28;20037;-74
2022/03/25 04:26:45;;;;;;;63.47;26.23;;;;;;;;;;5029739;28;20436;-74
2022/03/25 04:29:11;;;;;;;66.80;26.80;;;;;;;;;;5028172;28;20059;-75
2022/03/25 04:31:36;;;;;;;63.27;25.77;;;;;;;;;;5028462;28;20025;-74
2022/03/25 04:34:03;;;;;;;58.47;26.00;;;;;;;;;;5029311;28;20120;-75
2022/03/25 04:36:30;;;;;;;58.03;25.13;;;;;;;;;;5028472;28;20478;-75
2022/03/25 04:38:56;;;;;;;53.90;26.67;;;;;;;;;;5028492;28;20362;-75
2022/03/25 04:41:23;;;;;;;59.17;26.43;;;;;;;;;;5028875;28;20021;-74
2022/03/25 04:43:50;;;;;;;57.57;25.27;;;;;;;;;;5028587;28;20393;-75
2022/03/25 04:46:16;;;;;;;59.90;27.03;;;;;;;;;;5028683;28;20029;-75
2022/03/25 04:48:41;;;;;;;60.03;25.77;;;;;;;;;;5029817;28;20035;-75
2022/03/25 04:51:07;;;;;;;63.73;27.60;;;;;;;;;;5027920;28;20026;-75
2022/03/25 04:53:34;;;;;;;61.97;27.17;;;;;;;;;;5029506;28;20026;-75
2022/03/25 04:56:01;;;;;;;58.63;25.40;;;;;;;;;;5029033;28;20025;-75
2022/03/25 04:58:27;;;;;;;60.23;26.63;;;;;;;;;;5030073;28;20045;-76
2022/03/25 05:00:52;;;;;;;57.03;26.63;;;;;;;;;;5029413;28;20484;-75
2022/03/25 05:03:19;;;;;;;67.13;28.57;;;;;;;;;;5028078;28;20022;-76
2022/03/25 05:05:45;;;;;;;60.30;28.13;;;;;;;;;;5011553;28;20477;-76
2022/03/25 05:08:11;;;;;;;61.70;25.87;;;;;;;;;;5027952;28;20105;-73
2022/03/25 05:10:40;;;;;;;64.03;28.33;;;;;;;;;;5028238;28;20056;-74
2022/03/25 05:13:06;;;;;;;65.77;25.00;;;;;;;;;;5027411;28;20072;-75
2022/03/25 05:15:31;;;;;;;56.70;25.30;;;;;;;;;;5027524;28;20673;-75
2022/03/25 05:17:58;;;;;;;57.23;25.40;;;;;;;;;;5029148;28;20488;-76
2022/03/25 05:20:24;;;;;;;67.13;26.83;;;;;;;;;;5027581;28;20079;-74
2022/03/25 05:22:50;;;;;;;62.13;25.47;;;;;;;;;;5032477;28;20033;-76
2022/03/25 05:25:17;;;;;;;67.47;26.90;;;;;;;;;;5031840;28;20033;-76
2022/03/25 05:27:49;;;;;;;56.20;25.83;;;;;;;;;;5031019;28;20033;-75
2022/03/25 05:30:19;;;;;;;50.88;22.52;;;;;;;;;;5032539;28;20036;-74
2022/03/25 05:32:45;;;;;;;56.83;25.93;;;;;;;;;;5030646;28;20025;-74
2022/03/25 05:35:10;;;;;;;62.07;24.53;;;;;;;;;;5030699;28;20504;-75
2022/03/25 05:37:38;;;;;;;59.90;26.17;;;;;;;;;;5030534;28;20511;-75
2022/03/25 05:40:06;;;;;;;63.30;25.90;;;;;;;;;;5030872;28;20029;-75
2022/03/25 05:42:33;;;;;;;68.87;27.10;;;;;;;;;;5014596;28;20021;-74
2022/03/25 05:44:59;;;;;;;57.93;24.97;;;;;;;;;;5015289;28;20037;-75
2022/03/25 05:47:25;;;;;;;62.37;25.33;;;;;;;;;;5030917;28;20033;-75
2022/03/25 05:49:51;;;;;;;61.17;24.17;;;;;;;;;;5030588;28;20021;-75
2022/03/25 05:52:18;;;;;;;56.73;24.63;;;;;;;;;;5032168;28;20390;-75
2022/03/25 05:54:44;;;;;;;59.40;26.77;;;;;;;;;;5030257;28;20099;-75
2022/03/25 05:57:10;;;;;;;60.43;26.40;;;;;;;;;;5030615;28;20030;-75
2022/03/25 05:59:35;;;;;;;59.83;26.27;;;;;;;;;;5030020;28;20485;-74
2022/03/25 06:02:01;;;;;;;59.23;24.27;;;;;;;;;;5014139;28;20083;-76
2022/03/25 06:04:27;;;;;;;59.70;25.10;;;;;;;;;;5014681;28;20033;-76
2022/03/25 06:06:53;;;;;;;50.77;23.97;;;;;;;;;;5032302;28;20025;-75
2022/03/25 06:09:19;;;;;;;55.33;25.13;;;;;;;;;;5030460;28;20029;-76
2022/03/25 06:11:48;;;;;;;57.43;25.20;;;;;;;;;;5031614;28;20067;-74
2022/03/25 06:14:14;;;;;;;60.93;25.80;;;;;;;;;;5030333;28;20042;-74
2022/03/25 06:16:39;;;;;;;55.13;27.57;;;;;;;;;;5031266;28;20500;-75
2022/03/25 06:19:05;;;;;;;65.80;27.30;;;;;;;;;;5030156;28;20083;-77
2022/03/25 06:21:32;;;;;;;54.63;25.60;;;;;;;;;;5031012;28;20021;-74
2022/03/25 06:23:58;;;;;;;60.47;26.33;;;;;;;;;;5030656;28;20067;-75
2022/03/25 06:26:24;;;;;;;56.67;26.50;;;;;;;;;;5033964;28;20056;-76
2022/03/25 06:28:49;;;;;;;58.73;25.13;;;;;;;;;;5030837;28;20028;-76
2022/03/25 06:31:15;;;;;;;59.93;27.37;;;;;;;;;;5015759;28;20030;-74
2022/03/25 06:33:41;;;;;;;55.30;26.53;;;;;;;;;;5015897;28;20048;-75
2022/03/25 06:36:13;;;;;;;56.10;26.80;;;;;;;;;;5027108;28;20040;-78
2022/03/25 06:38:39;;;;;;;57.22;26.15;;;;;;;;;;5015208;28;20034;-78
2022/03/25 06:41:05;;;;;;;55.90;27.00;;;;;;;;;;5019014;28;20099;-77
2022/03/25 06:43:31;;;;;;;58.10;25.60;;;;;;;;;;5040178;28;20030;-76
2022/03/25 06:45:56;;;;;;;57.97;26.03;;;;;;;;;;5031242;28;20032;-76
2022/03/25 06:48:22;;;;;;;65.53;26.30;;;;;;;;;;5030783;28;20405;-77
2022/03/25 06:50:48;;;;;;;64.77;27.87;;;;;;;;;;5015667;28;20025;-75
2022/03/25 06:53:14;;;;;;;55.73;26.03;;;;;;;;;;5040302;28;20018;-75
2022/03/25 06:55:43;;;;;;;65.77;26.10;;;;;;;;;;5023579;28;20029;-75
2022/03/25 06:58:10;;;;;;;66.03;25.10;;;;;;;;;;5033054;28;20045;-74
2022/03/25 07:00:37;;;;;;;67.20;26.90;;;;;;;;;;5031485;28;20025;-77
2022/03/25 07:03:04;;;;;;;64.07;26.13;;;;;;;;;;5029138;28;20025;-75
2022/03/25 07:05:31;;;;;;;55.03;25.70;;;;;;;;;;5030466;28;20065;-75
2022/03/25 07:07:58;;;;;;;66.03;27.10;;;;;;;;;;5029570;28;20169;-76
2022/03/25 07:10:26;;;;;;;62.03;26.23;;;;;;;;;;5031303;28;20029;-76
2022/03/25 07:12:54;;;;;;;59.03;25.83;;;;;;;;;;5029939;28;20033;-76
2022/03/25 07:15:21;;;;;;;58.20;25.60;;;;;;;;;;5012479;28;20049;-73
2022/03/25 07:17:47;;;;;;;65.47;28.70;;;;;;;;;;5027629;28;20041;-75
2022/03/25 07:20:15;;;;;;;76.53;28.23;;;;;;;;;;5031718;28;20034;-75
2022/03/25 07:22:47;;;;;;;55.47;25.03;;;;;;;;;;5032660;28;20029;-76
2022/03/25 07:25:13;;;;;;;55.58;26.48;;;;;;;;;;5018475;28;20055;-74
2022/03/25 07:27:40;;;;;;;64.70;27.57;;;;;;;;;;5030068;28;20159;-75
2022/03/25 07:30:07;;;;;;;56.50;27.13;;;;;;;;;;5017733;28;20033;-75
2022/03/25 07:32:33;;;;;;;57.60;26.13;;;;;;;;;;5015897;28;20060;-75
2022/03/25 07:34:59;;;;;;;61.17;25.83;;;;;;;;;;5007380;28;20073;-72
2022/03/25 07:37:25;;;;;;;53.60;24.97;;;;;;;;;;5008750;28;20108;-76
2022/03/25 07:39:50;;;;;;;61.13;28.50;;;;;;;;;;5025617;28;20144;-78
2022/03/25 07:42:22;;;;;;;73.30;27.27;;;;;;;;;;5026459;28;20167;-75
2022/03/25 07:44:48;;;;;;;56.58;26.50;;;;;;;;;;5025624;28;20040;-73
2022/03/25 07:47:14;;;;;;;60.33;25.33;;;;;;;;;;5027811;28;20029;-74
2022/03/25 07:49:40;;;;;;;54.50;24.33;;;;;;;;;;5026762;28;20701;-76
2022/03/25 07:52:16;;;;;;;64.03;26.60;;;;;;;;;;5026640;28;20021;-75
2022/03/25 07:54:42;;;;;;;59.63;25.03;;;;;;;;;;5027672;28;20029;-75
2022/03/25 07:57:08;;;;;;;53.63;24.37;;;;;;;;;;5026180;28;20348;-77
2022/03/25 07:59:33;;;;;;;55.70;24.87;;;;;;;;;;5026271;28;20083;-76
2022/03/25 08:01:59;;;;;;;57.87;24.83;;;;;;;;;;5019698;28;20021;-73
2022/03/25 08:04:24;;;;;;;63.23;25.83;;;;;;;;;;5013984;28;20554;-76
2022/03/25 08:06:52;;;;;;;61.97;25.80;;;;;;;;;;5018418;28;20365;-74
2022/03/25 08:09:17;;;;;;;63.53;25.93;;;;;;;;;;5008058;28;20037;-75
2022/03/25 08:11:45;;;;;;;50.13;23.40;;;;;;;;;;5006395;28;20057;-74
2022/03/25 08:14:14;;;;;;;61.27;25.20;;;;;;;;;;5013058;28;20045;-75
2022/03/25 08:16:42;;;;;;;76.17;27.60;;;;;;;;;;5009304;28;20030;-74
2022/03/25 08:19:07;;;;;;;59.63;25.60;;;;;;;;;;5009251;28;20030;-75
2022/03/25 08:21:33;;;;;;;62.53;27.63;;;;;;;;;;5013487;28;20029;-75
2022/03/25 08:29:28;;;;;;;63.70;27.80;;;;;;;;;;5013661;28;20040;-77
2022/03/25 08:31:54;;;;;;;60.33;28.63;;;;;;;;;;5007308;28;20044;-75
2022/03/25 08:34:20;;;;;;;57.53;26.07;;;;;;;;;;5016988;28;20033;-73
2022/03/25 08:36:47;;;;;;;60.50;28.60;;;;;;;;;;5018529;28;20029;-74
2022/03/25 08:39:13;;;;;;;60.67;28.13;;;;;;;;;;5008728;28;20038;-74
2022/03/25 08:41:40;;;;;;;62.97;27.07;;;;;;;;;;5011242;28;20028;-74
2022/03/25 08:44:09;;;;;;;53.03;26.10;;;;;;;;;;5026289;28;20051;-75
2022/03/25 08:46:35;;;;;;;66.47;26.63;;;;;;;;;;4993773;28;20039;-73
2022/03/25 08:49:01;;;;;;;58.93;27.33;;;;;;;;;;5011903;28;20061;-75
2022/03/25 08:51:27;;;;;;;65.40;28.77;;;;;;;;;;5010763;28;20030;-75
2022/03/25 08:53:53;;;;;;;63.30;26.03;;;;;;;;;;5006357;28;20033;-75
2022/03/25 08:56:20;;;;;;;64.53;28.93;;;;;;;;;;5013579;28;20025;-74
2022/03/25 08:58:46;;;;;;;61.83;27.63;;;;;;;;;;5013432;28;20057;-74
2022/03/25 09:01:12;;;;;;;72.80;30.50;;;;;;;;;;5017255;28;20056;-76
2022/03/25 09:03:39;;;;;;;66.90;29.27;;;;;;;;;;5006664;28;20033;-76
2022/03/25 09:06:04;;;;;;;63.60;27.63;;;;;;;;;;5014971;28;20117;-74
2022/03/25 09:08:30;;;;;;;65.23;29.03;;;;;;;;;;5014514;28;20101;-75
2022/03/25 09:10:57;;;;;;;64.47;29.00;;;;;;;;;;5018016;28;20017;-76
2022/03/25 09:13:22;;;;;;;66.43;28.80;;;;;;;;;;5009009;28;20038;-75
2022/03/25 09:15:48;;;;;;;64.50;28.53;;;;;;;;;;5016870;28;20518;-75
2022/03/25 09:18:14;;;;;;;62.83;28.67;;;;;;;;;;5018783;28;20037;-75
2022/03/25 09:20:40;;;;;;;65.47;29.63;;;;;;;;;;5020835;28;20037;-75
2022/03/25 09:23:05;;;;;;;68.70;34.33;;;;;;;;;;5016771;28;20393;-76
2022/03/25 09:25:31;;;;;;;69.28;30.88;;;;;;;;;;5019631;28;20088;-74
2022/03/25 09:27:57;;;;;;;71.47;28.63;;;;;;;;;;5016817;28;20134;-76
2022/03/25 09:30:23;;;;;;;77.85;28.95;;;;;;;;;;5017224;28;20365;-75
2022/03/25 09:32:48;;;;;;;59.87;25.63;;;;;;;;;;5012926;28;20038;-73
2022/03/25 09:35:14;;;;;;;60.22;27.15;;;;;;;;;;4990734;28;20041;-76
2022/03/25 09:37:43;;;;;;;59.78;28.17;;;;;;;;;;5015338;28;20385;-75
2022/03/25 09:40:12;;;;;;;65.45;27.65;;;;;;;;;;5019490;28;20040;-75
2022/03/25 09:42:40;;;;;;;63.67;27.77;;;;;;;;;;5009664;28;21129;-73
2022/03/25 09:45:07;;;;;;;61.17;24.75;;;;;;;;;;5016166;28;20033;-76
2022/03/25 09:47:34;;;;;;;55.38;25.40;;;;;;;;;;5016237;28;20029;-74
2022/03/25 09:50:00;;;;;;;73.65;25.42;;;;;;;;;;5015958;28;20033;-74
2022/03/25 09:52:31;;;;;;;58.83;27.20;;;;;;;;;;5010949;28;20025;-73
2022/03/25 09:54:58;;;;;;;59.13;28.17;;;;;;;;;;5000462;28;20038;-73
2022/03/25 09:57:29;;;;;;;50.05;24.98;;;;;;;;;;5019526;28;21541;-75
2022/03/25 09:59:54;;;;;;;56.55;26.15;;;;;;;;;;5013446;28;20034;-74
2022/03/25 10:02:20;;;;;;;52.22;24.98;;;;;;;;;;5014950;28;20330;-75
2022/03/25 10:04:48;;;;;;;54.00;23.50;;;;;;;;;;5018006;28;20115;-76
2022/03/25 10:07:27;;;;;;;50.50;24.92;;;;;;;;;;5017105;28;20057;-75
2022/03/25 10:10:12;;;;;;;49.55;23.70;;;;;;;;;;5016869;28;20040;-74
2022/03/25 10:12:39;;;;;;;54.60;24.30;;;;;;;;;;5015653;28;20044;-74
2022/03/25 10:15:11;;;;;;;62.33;24.92;;;;;;;;;;5019185;28;20041;-74
2022/03/25 10:17:46;;;;;;;59.75;24.67;;;;;;;;;;5016443;28;20169;-75
2022/03/25 10:20:13;;;;;;;60.22;23.58;;;;;;;;;;5016971;28;20037;-74
2022/03/25 10:22:55;;;;;;;64.63;26.73;;;;;;;;;;5015781;28;20473;-75
2022/03/25 10:25:41;;;;;;;58.90;24.42;;;;;;;;;;5014188;28;20028;-73
2022/03/25 10:28:27;;;;;;;53.33;24.17;;;;;;;;;;5016547;28;20072;-76
2022/03/25 10:30:55;;;;;;;57.65;25.20;;;;;;;;;;5013771;28;20045;-76
2022/03/25 10:33:26;;;;;;;53.03;23.38;;;;;;;;;;5015303;28;20398;-75
2022/03/25 10:36:07;;;;;;;57.63;24.85;;;;;;;;;;5021435;28;20037;-76
2022/03/25 10:38:57;;;;;;;55.40;23.85;;;;;;;;;;5037161;28;20377;-75
2022/03/25 10:41:37;;;;;;;50.13;24.17;;;;;;;;;;5027651;28;20069;-75
2022/03/25 10:44:04;;;;;;;51.35;22.52;;;;;;;;;;5017815;28;20044;-75
2022/03/25 10:46:32;;;;;;;46.63;23.60;;;;;;;;;;5021384;28;20030;-75
2022/03/25 10:48:58;;;;;;;53.03;21.52;;;;;;;;;;5017407;28;20029;-75
2022/03/25 10:51:24;;;;;;;39.92;19.77;;;;;;;;;;5028648;28;20040;-75
2022/03/25 10:54:02;;;;;;;47.75;22.27;;;;;;;;;;5031228;28;20073;-75
2022/03/25 10:56:41;;;;;;;47.53;20.90;;;;;;;;;;5021710;28;20037;-75
2022/03/25 10:59:35;;;;;;;51.95;20.35;;;;;;;;;;5027884;28;20466;-77
2022/03/25 11:02:06;;;;;;;49.13;19.55;;;;;;;;;;5028581;28;20159;-75
2022/03/25 11:04:32;;;;;;;50.90;22.08;;;;;;;;;;5007383;28;20022;-74
2022/03/25 11:06:58;;;;;;;44.20;19.30;;;;;;;;;;5021610;28;20036;-76
2022/03/25 11:09:27;;;;;;;46.10;20.50;;;;;;;;;;5023453;28;20030;-76
2022/03/25 11:11:53;;;;;;;46.35;20.17;;;;;;;;;;5004249;28;20040;-76
2022/03/25 11:14:19;;;;;;;45.40;19.75;;;;;;;;;;5021330;28;20089;-75
2022/03/25 11:16:48;;;;;;;41.65;19.08;;;;;;;;;;5015219;28;20053;-74
2022/03/25 11:19:16;;;;;;;39.78;18.98;;;;;;;;;;5023719;28;20125;-76
2022/03/25 11:21:45;;;;;;;50.65;19.92;;;;;;;;;;5020806;28;20389;-75
2022/03/25 11:24:33;;;;;;;52.90;21.75;;;;;;;;;;5020667;28;20137;-75
2022/03/25 11:27:25;;;;;;;41.22;19.92;;;;;;;;;;5015189;28;20034;-74
2022/03/25 11:29:53;;;;;;;;;;;;;;;;;;5019566;28;20033;-74
2022/03/25 11:32:19;;;;;;;41.65;20.33;;;;;;;;;;5024386;28;20016;-77
2022/03/25 11:34:54;;;;;;;45.55;21.05;;;;;;;;;;5014393;28;20036;-74
2022/03/25 11:37:21;;;;;;;55.28;23.38;;;;;;;;;;5018741;28;20647;-76
2022/03/25 11:39:48;;;;;;;47.80;20.92;;;;;;;;;;5016552;28;20049;-77
2022/03/25 11:42:49;;;;;;;40.78;19.40;;;;;;;;;;5021300;28;20044;-74
2022/03/25 11:48:01;;;;;;;41.60;20.65;;;;;;;;;;5026692;28;20382;-74
2022/03/25 11:50:36;;;;;;;52.13;23.08;;;;;;;;;;5022834;28;20454;-73
2022/03/25 11:53:11;;;;;;;49.50;20.02;;;;;;;;;;5016098;28;20033;-74
2022/03/25 11:56:14;;;;;;;45.67;21.02;;;;;;;;;;5022799;28;20049;-77
2022/03/25 11:58:57;;;;;;;43.08;20.85;;;;;;;;;;5017482;28;20029;-75
2022/03/25 12:01:24;;;;;;;47.95;20.73;;;;;;;;;;5025694;28;20481;-76
2022/03/25 12:03:54;;;;;;;44.33;19.13;;;;;;;;;;5004417;28;20108;-76
2022/03/25 12:06:23;;;;;;;54.38;22.48;;;;;;;;;;5021924;28;20112;-75
2022/03/25 12:08:56;;;;;;;47.50;20.65;;;;;;;;;;5023884;28;20104;-74
2022/03/25 12:11:48;;;;;;;42.80;19.15;;;;;;;;;;5024638;28;20064;-75
2022/03/25 12:14:13;;;;;;;46.47;20.98;;;;;;;;;;5024043;28;20133;-74
2022/03/25 12:16:45;;;;;;;43.28;20.90;;;;;;;;;;5018692;28;20620;-76
2022/03/25 12:19:26;;;;;;;;;;;;;;;;;;5022246;28;20112;-75
2022/03/25 12:21:56;;;;;;;54.67;21.13;;;;;;;;;;5029592;28;20524;-75
2022/03/25 12:24:24;;;;;;;45.28;20.90;;;;;;;;;;5030969;28;20041;-75
2022/03/25 12:27:00;;;;;;;45.28;19.58;;;;;;;;;;5036065;28;20025;-75
2022/03/25 12:29:33;;;;;;;44.45;18.63;;;;;;;;;;5024699;28;20409;-74
2022/03/25 12:32:03;;;;;;;41.35;19.25;;;;;;;;;;5026538;28;20048;-75
2022/03/25 12:35:02;;;;;;;41.75;18.88;;;;;;;;;;5025964;28;20041;-75
2022/03/25 12:37:47;;;;;;;42.75;20.48;;;;;;;;;;5027929;28;20029;-78
2022/03/25 12:40:17;;;;;;;44.45;20.73;;;;;;;;;;5027590;28;20140;-76
2022/03/25 12:42:47;;;;;;;51.92;22.73;;;;;;;;;;5021805;28;20041;-74
2022/03/25 12:45:12;;;;;;;46.58;20.38;;;;;;;;;;5023028;28;20029;-75
2022/03/25 12:47:43;;;;;;;42.33;21.23;;;;;;;;;;5025048;28;20630;-73
2022/03/25 12:50:12;;;;;;;46.38;20.42;;;;;;;;;;5028164;28;20036;-74
2022/03/25 12:52:38;;;;;;;36.40;18.17;;;;;;;;;;5027309;28;20038;-76
2022/03/25 12:55:23;;;;;;;39.05;19.42;;;;;;;;;;5021248;28;20037;-75
2022/03/25 12:57:49;;;;;;;41.42;19.40;;;;;;;;;;5022606;28;20036;-75
2022/03/25 13:00:16;;;;;;;39.00;18.33;;;;;;;;;;5026674;28;20045;-74
2022/03/25 13:02:44;;;;;;;35.63;18.08;;;;;;;;;;5022305;28;20112;-77
2022/03/25 13:05:18;;;;;;;39.05;18.38;;;;;;;;;;5025924;28;20041;-73
2022/03/25 13:07:46;;;;;;;44.08;18.27;;;;;;;;;;5028064;28;20095;-75
2022/03/25 13:10:12;;;;;;;44.42;19.33;;;;;;;;;;5020003;28;20182;-75
2022/03/25 13:12:41;;;;;;;42.70;19.83;;;;;;;;;;5022693;28;20044;-76
2022/03/25 13:15:09;;;;;;;41.05;18.50;;;;;;;;;;5021632;28;20053;-76
2022/03/25 13:17:36;;;;;;;49.00;19.23;;;;;;;;;;5021165;28;20478;-76
2022/03/25 13:20:09;;;;;;;41.95;19.58;;;;;;;;;;5016654;28;20460;-75
2022/03/25 13:22:36;;;;;;;42.58;18.58;;;;;;;;;;5026881;28;20029;-76
2022/03/25 13:25:03;;;;;;;43.28;18.75;;;;;;;;;;5022053;28;20513;-75
2022/03/25 13:27:29;;;;;;;42.25;20.50;;;;;;;;;;5010759;28;20040;-75
2022/03/25 13:29:55;;;;;;;51.03;21.33;;;;;;;;;;5019144;28;20029;-76
2022/03/25 13:32:39;;;;;;;50.67;20.27;;;;;;;;;;5024239;28;20310;-76
2022/03/25 13:35:11;;;;;;;48.15;19.85;;;;;;;;;;5023959;28;20037;-76
2022/03/25 13:37:37;;;;;;;43.67;19.35;;;;;;;;;;5023844;28;20044;-76
2022/03/25 13:40:31;;;;;;;44.28;19.60;;;;;;;;;;5011217;28;20038;-76
2022/03/25 13:42:58;;;;;;;52.33;22.73;;;;;;;;;;5013914;28;20512;-76
2022/03/25 13:45:23;;;;;;;42.83;19.27;;;;;;;;;;5022576;28;20426;-77
2022/03/25 13:48:14;;;;;;;46.55;19.30;;;;;;;;;;5019609;28;20036;-76
2022/03/25 13:50:48;;;;;;;43.15;20.63;;;;;;;;;;5021858;28;20101;-75
2022/03/25 13:53:17;;;;;;;50.08;18.92;;;;;;;;;;5004068;28;20038;-76
2022/03/25 13:55:43;;;;;;;38.50;19.67;;;;;;;;;;5027394;28;20032;-77
2022/03/25 13:58:17;;;;;;;39.20;18.13;;;;;;;;;;5024881;28;20025;-76
2022/03/25 14:00:52;;;;;;;36.35;18.77;;;;;;;;;;5025597;28;20026;-75
2022/03/25 14:03:19;;;;;;;44.22;19.85;;;;;;;;;;5040958;28;20033;-76
2022/03/25 14:05:44;;;;;;;33.58;18.58;;;;;;;;;;5009381;28;20057;-76
2022/03/25 14:08:12;;;;;;;42.05;18.98;;;;;;;;;;5031765;28;20033;-75
2022/03/25 14:10:58;;;;;;;42.30;19.30;;;;;;;;;;5027213;28;20056;-74
2022/03/25 14:13:24;;;;;;;31.80;17.85;;;;;;;;;;5032202;28;20033;-76
2022/03/25 14:15:49;;;;;;;38.50;17.40;;;;;;;;;;5026461;28;20076;-75
2022/03/25 14:18:20;;;;;;;35.13;18.50;;;;;;;;;;5022328;28;20026;-76
2022/03/25 14:20:48;;;;;;;40.58;18.25;;;;;;;;;;5023478;28;20092;-76
2022/03/25 14:23:18;;;;;;;37.25;18.08;;;;;;;;;;5027606;28;20021;-76
2022/03/25 14:25:44;;;;;;;43.50;18.57;;;;;;;;;;5026349;28;20037;-76
2022/03/25 14:28:10;;;;;;;42.60;18.38;;;;;;;;;;5015864;28;20792;-75
2022/03/25 14:30:37;;;;;;;39.20;17.73;;;;;;;;;;5019879;28;20543;-75
2022/03/25 14:33:03;;;;;;;36.22;18.17;;;;;;;;;;5028911;28;20083;-74